createdAt,value
2018-11-11T08:02:03.300Z,9.45
2018-11-11T08:04:32.389Z,9.55
2018-11-11T08:07:01.460Z,9.54
2018-11-11T08:09:30.623Z,9.66
2018-11-11T08:12:01.791Z,9.74
2018-11-11T08:14:33.806Z,9.65
2018-11-11T08:17:02.898Z,9.69
2018-11-11T08:19:31.967Z,9.54
2018-11-11T08:22:03.423Z,9.46
2018-11-11T08:24:32.558Z,9.59
2018-11-11T08:27:04.613Z,9.66
2018-11-11T08:29:34.859Z,9.67
2018-11-11T08:32:05.718Z,9.70
2018-11-11T08:34:38.097Z,9.59
2018-11-11T08:37:07.256Z,9.64
2018-11-11T08:39:38.734Z,9.64
2018-11-11T08:42:21.164Z,9.70
2018-11-11T08:44:52.046Z,9.74
2018-11-11T08:47:24.945Z,9.82
2018-11-11T08:49:58.493Z,9.72
2018-11-11T08:52:27.454Z,9.71
2018-11-11T08:54:56.593Z,9.77
2018-11-11T08:57:25.777Z,9.96
2018-11-11T08:59:57.763Z,9.92
2018-11-11T09:02:30.443Z,10.04
2018-11-11T09:04:59.557Z,10.04
2018-11-11T09:07:30.429Z,9.91
2018-11-11T09:10:00.212Z,10.06
2018-11-11T09:12:29.883Z,10.03
2018-11-11T09:15:00.665Z,10.08
2018-11-11T09:17:30.832Z,10.17
2018-11-11T09:20:00.303Z,10.28
2018-11-11T09:22:29.514Z,10.30
2018-11-11T09:25:01.173Z,10.34
2018-11-11T09:27:31.460Z,10.33
2018-11-11T09:30:04.264Z,10.26
2018-11-11T09:32:33.436Z,10.21
2018-11-11T09:35:02.746Z,10.21
2018-11-11T09:37:37.603Z,10.25
2018-11-11T09:40:12.606Z,10.27
2018-11-11T09:42:47.927Z,10.36
2018-11-11T09:45:17.453Z,10.45
2018-11-11T09:47:48.972Z,10.54
2018-11-11T09:50:20.653Z,10.77
2018-11-11T09:52:49.696Z,10.96
2018-11-11T09:55:19.148Z,11.08
2018-11-11T09:57:50.749Z,11.21
2018-11-11T10:00:23.042Z,11.35
2018-11-11T10:04:59.870Z,11.34
2018-11-11T10:07:39.647Z,11.58
2018-11-11T10:10:27.540Z,11.61
2018-11-11T10:13:00.843Z,11.49
2018-11-11T10:15:37.941Z,11.52
2018-11-11T10:18:12.947Z,11.55
2018-11-11T10:20:49.443Z,11.56
2018-11-11T10:23:31.216Z,11.56
2018-11-11T10:27:09.139Z,11.68
2018-11-11T10:29:45.321Z,11.66
2018-11-11T10:32:32.036Z,11.87
2018-11-11T10:35:10.262Z,11.88
2018-11-11T10:37:45.758Z,11.94
2018-11-11T10:40:27.513Z,12.06
2018-11-11T10:45:04.558Z,12.21
2018-11-11T10:47:43.428Z,12.21
2018-11-11T10:50:25.806Z,12.15
2018-11-11T10:52:58.021Z,12.10
2018-11-11T10:55:27.298Z,12.19
2018-11-11T10:57:56.434Z,12.24
2018-11-11T11:00:29.035Z,12.33
2018-11-11T11:02:59.430Z,12.47
2018-11-11T11:05:30.331Z,12.74
2018-11-11T11:08:10.266Z,13.01
2018-11-11T11:10:39.580Z,13.10
2018-11-11T11:13:09.727Z,13.30
2018-11-11T11:15:38.945Z,13.74
2018-11-11T11:18:12.110Z,13.77
2018-11-11T11:20:41.239Z,13.99
2018-11-11T11:23:11.733Z,13.97
2018-11-11T11:25:44.622Z,13.85
2018-11-11T11:28:16.416Z,13.95
2018-11-11T11:30:45.642Z,13.81
2018-11-11T11:33:21.067Z,13.70
2018-11-11T11:35:50.267Z,13.77
2018-11-11T11:38:20.415Z,14.04
2018-11-11T11:40:51.734Z,14.00
2018-11-11T11:43:25.051Z,14.10
2018-11-11T11:45:54.306Z,14.15
2018-11-11T11:48:25.753Z,14.26
2018-11-11T11:50:57.646Z,14.12
2018-11-11T11:53:27.037Z,14.12
2018-11-11T11:55:56.383Z,14.03
2018-11-11T11:58:29.587Z,13.98
2018-11-11T12:01:02.020Z,13.91
2018-11-11T12:03:34.319Z,13.89
2018-11-11T12:06:05.643Z,13.91
2018-11-11T12:08:38.146Z,14.63
2018-11-11T12:11:12.359Z,15.59
2018-11-11T12:13:44.415Z,16.42
2018-11-11T12:16:18.858Z,17.21
2018-11-11T12:18:48.026Z,17.85
2018-11-11T12:21:17.466Z,18.21
2018-11-11T12:23:46.492Z,18.33
2018-11-11T12:26:17.381Z,19.40
2018-11-11T12:28:49.886Z,20.36
2018-11-11T12:31:19.378Z,19.96
2018-11-11T12:33:48.821Z,20.31
2018-11-11T12:36:20.234Z,20.48
2018-11-11T12:38:54.073Z,20.35
2018-11-11T12:41:26.244Z,20.53
2018-11-11T12:43:58.774Z,20.22
2018-11-11T12:46:28.025Z,19.71
2018-11-11T12:49:05.160Z,19.49
2018-11-11T12:51:37.592Z,19.98
2018-11-11T12:54:07.458Z,19.63
2018-11-11T12:56:38.807Z,18.80
2018-11-11T12:59:09.798Z,18.10
2018-11-11T13:01:42.556Z,17.49
2018-11-11T13:04:12.273Z,17.53
2018-11-11T13:06:43.625Z,16.99
2018-11-11T13:09:12.790Z,17.54
2018-11-11T13:11:46.919Z,18.27
2018-11-11T13:14:18.463Z,19.66
2018-11-11T13:16:49.404Z,19.48
2018-11-11T13:19:20.110Z,19.14
2018-11-11T13:24:32.778Z,18.77
2018-11-11T13:27:09.976Z,18.99
2018-11-11T13:29:43.359Z,18.56
2018-11-11T13:32:12.484Z,17.93
2018-11-11T13:34:41.665Z,17.38
2018-11-11T13:37:11.256Z,16.99
2018-11-11T13:39:43.400Z,16.38
2018-11-11T13:42:12.587Z,16.45
2018-11-11T13:44:42.050Z,16.22
2018-11-11T13:47:11.108Z,15.94
2018-11-11T13:49:45.835Z,15.68
2018-11-11T13:52:17.447Z,15.34
2018-11-11T13:54:46.441Z,15.08
2018-11-11T13:57:16.387Z,15.12
2018-11-11T13:59:45.603Z,15.09
2018-11-11T14:02:15.414Z,15.22
2018-11-11T14:04:47.560Z,15.08
2018-11-11T14:07:19.897Z,15.05
2018-11-11T14:09:49.020Z,14.86
2018-11-11T14:12:17.956Z,14.77
2018-11-11T14:14:49.360Z,14.61
2018-11-11T14:17:18.280Z,14.42
2018-11-11T14:19:47.443Z,14.22
2018-11-11T14:22:16.387Z,13.98
2018-11-11T14:24:45.630Z,13.94
2018-11-11T14:27:14.998Z,13.86
2018-11-11T14:29:44.245Z,13.77
2018-11-11T14:32:13.315Z,13.70
2018-11-11T14:34:42.497Z,13.66
2018-11-11T14:37:14.304Z,13.63
2018-11-11T14:39:44.683Z,13.56
2018-11-11T14:44:59.565Z,13.34
2018-11-11T14:47:28.713Z,13.43
2018-11-11T14:49:57.771Z,13.37
2018-11-11T14:52:29.298Z,13.40
2018-11-11T14:54:58.358Z,13.34
2018-11-11T14:57:27.318Z,13.27
2018-11-11T14:59:59.999Z,13.24
2018-11-11T15:02:28.991Z,13.30
2018-11-11T15:04:59.747Z,13.25
2018-11-11T15:07:28.749Z,13.11
2018-11-11T15:10:00.955Z,13.06
2018-11-11T15:12:29.869Z,13.17
2018-11-11T15:14:58.880Z,13.22
2018-11-11T15:17:32.270Z,13.20
2018-11-11T15:20:01.606Z,13.11
2018-11-11T15:22:30.546Z,13.08
2018-11-11T15:24:59.579Z,12.95
2018-11-11T15:27:33.433Z,12.94
2018-11-11T15:30:04.871Z,12.85
2018-11-11T15:32:33.847Z,12.86
2018-11-11T15:35:02.960Z,12.77
2018-11-11T15:37:31.998Z,12.70
2018-11-11T15:40:01.408Z,12.64
2018-11-11T15:42:33.621Z,12.74
2018-11-11T15:45:02.895Z,12.67
2018-11-11T15:47:32.753Z,12.63
2018-11-11T15:50:02.983Z,12.58
2018-11-11T15:52:35.685Z,12.60
2018-11-11T15:55:09.365Z,12.61
2018-11-11T15:57:38.559Z,12.61
2018-11-11T16:00:15.189Z,12.61
2018-11-11T16:02:44.547Z,12.63
2018-11-11T16:05:15.978Z,12.68
2018-11-11T16:07:47.488Z,12.62
2018-11-11T16:10:20.724Z,12.56
2018-11-11T16:12:50.054Z,12.45
2018-11-11T16:15:38.988Z,12.37
2018-11-11T16:18:09.985Z,12.42
2018-11-11T16:20:39.341Z,12.37
2018-11-11T16:23:12.691Z,12.30
2018-11-11T16:25:43.885Z,12.12
2018-11-11T16:28:18.280Z,12.15
2018-11-11T16:30:49.022Z,12.11
2018-11-11T16:33:19.401Z,12.10
2018-11-11T16:35:48.436Z,12.08
2018-11-11T16:38:20.668Z,12.08
2018-11-11T16:40:51.861Z,11.99
2018-11-11T16:43:23.053Z,12.01
2018-11-11T16:45:52.101Z,11.98
2018-11-11T16:48:21.151Z,11.89
2018-11-11T16:50:51.187Z,11.88
2018-11-11T16:53:21.998Z,11.88
2018-11-11T16:55:51.057Z,11.89
2018-11-11T16:58:20.148Z,11.82
2018-11-11T17:00:54.921Z,11.82
2018-11-11T17:03:27.996Z,11.89
2018-11-11T17:06:00.234Z,11.86
2018-11-11T17:08:29.627Z,11.85
2018-11-11T17:14:10.904Z,11.79
2018-11-11T17:16:40.018Z,11.73
2018-11-11T17:19:11.177Z,11.68
2018-11-11T17:21:41.896Z,11.68
2018-11-11T17:24:13.783Z,11.61
2018-11-11T17:26:45.854Z,11.69
2018-11-11T17:29:15.033Z,11.75
2018-11-11T17:31:49.221Z,11.76
2018-11-11T17:34:18.318Z,11.73
2018-11-11T17:36:51.102Z,11.78
2018-11-11T17:39:25.813Z,11.76
2018-11-11T17:42:02.197Z,11.78
2018-11-11T17:44:33.856Z,11.80
2018-11-11T17:47:02.929Z,11.75
2018-11-11T17:49:35.032Z,11.69
2018-11-11T17:52:04.288Z,11.67
2018-11-11T17:54:33.451Z,11.66
2018-11-11T17:57:04.527Z,11.57
2018-11-11T17:59:39.550Z,11.59
2018-11-11T18:02:10.343Z,11.53
2018-11-11T18:04:39.491Z,11.54
2018-11-11T18:07:08.533Z,11.53
2018-11-11T18:09:37.731Z,11.56
2018-11-11T18:12:09.097Z,11.49
2018-11-11T18:14:41.156Z,11.45
2018-11-11T18:17:10.492Z,11.46
2018-11-11T18:19:39.446Z,11.40
2018-11-11T18:22:10.546Z,11.48
2018-11-11T18:24:42.059Z,11.51
2018-11-11T18:27:13.630Z,11.54
2018-11-11T18:29:42.909Z,11.54
2018-11-11T18:32:11.793Z,11.55
2018-11-11T18:34:40.810Z,11.48
2018-11-11T18:37:12.679Z,11.54
2018-11-11T18:39:42.688Z,11.49
2018-11-11T18:42:11.697Z,11.47
2018-11-11T18:44:41.235Z,11.39
2018-11-11T18:47:12.551Z,11.41
2018-11-11T18:49:43.774Z,11.44
2018-11-11T18:52:16.430Z,11.48
2018-11-11T18:54:45.611Z,11.39
2018-11-11T18:57:14.552Z,11.38
2018-11-11T18:59:47.732Z,11.43
2018-11-11T19:02:19.516Z,11.35
2018-11-11T19:04:48.620Z,11.23
2018-11-11T19:07:17.943Z,11.18
2018-11-11T19:09:49.719Z,11.11
2018-11-11T19:12:18.736Z,11.13
2018-11-11T19:14:48.949Z,11.09
2018-11-11T19:17:21.969Z,11.06
2018-11-11T19:19:53.116Z,11.13
2018-11-11T19:22:27.601Z,11.12
2018-11-11T19:25:00.555Z,11.05
2018-11-11T19:27:31.737Z,10.94
2018-11-11T19:30:03.980Z,10.94
2018-11-11T19:32:33.153Z,10.96
2018-11-11T19:35:02.093Z,10.81
2018-11-11T19:37:31.956Z,10.82
2018-11-11T19:40:02.261Z,10.90
2018-11-11T19:42:31.273Z,10.85
2018-11-11T19:45:01.394Z,10.86
2018-11-11T19:47:35.137Z,10.93
2018-11-11T19:50:06.199Z,10.93
2018-11-11T19:52:41.758Z,10.80
2018-11-11T19:55:14.443Z,10.84
2018-11-11T19:57:43.910Z,10.85
2018-11-11T20:00:19.901Z,10.86
2018-11-11T20:02:51.025Z,10.86
2018-11-11T20:05:23.447Z,10.86
2018-11-11T20:07:53.773Z,10.82
2018-11-11T20:10:24.948Z,10.75
2018-11-11T20:12:54.821Z,10.73
2018-11-11T20:15:28.413Z,10.71
2018-11-11T20:18:00.320Z,10.69
2018-11-11T20:20:31.154Z,10.66
2018-11-11T20:23:03.527Z,10.66
2018-11-11T20:25:34.736Z,10.52
2018-11-11T20:28:04.801Z,10.59
2018-11-11T20:30:39.559Z,10.60
2018-11-11T20:33:12.907Z,10.61
2018-11-11T20:35:46.155Z,10.49
2018-11-11T20:38:16.379Z,10.46
2018-11-11T20:40:47.888Z,10.46
2018-11-11T20:43:21.642Z,10.49
2018-11-11T20:45:50.539Z,10.41
2018-11-11T20:48:23.593Z,10.42
2018-11-11T20:50:55.063Z,10.39
2018-11-11T20:53:24.704Z,10.35
2018-11-11T20:55:53.712Z,10.29
2018-11-11T20:58:25.732Z,10.28
2018-11-11T21:00:56.847Z,10.35
2018-11-11T21:03:30.115Z,10.26
2018-11-11T21:06:00.218Z,10.32
2018-11-11T21:08:29.562Z,10.28
2018-11-11T21:10:58.829Z,10.33
2018-11-11T21:13:28.946Z,10.33
2018-11-11T21:15:58.368Z,10.30
2018-11-11T21:18:29.933Z,10.25
2018-11-11T21:20:59.144Z,10.21
2018-11-11T21:23:30.092Z,10.16
2018-11-11T21:26:04.623Z,10.16
2018-11-11T21:28:35.353Z,10.08
2018-11-11T21:31:04.887Z,10.06
2018-11-11T21:33:39.871Z,10.09
2018-11-11T21:36:09.466Z,10.10
2018-11-11T21:38:41.301Z,10.10
2018-11-11T21:41:10.442Z,10.12
2018-11-11T21:43:39.603Z,10.06
2018-11-11T21:46:08.778Z,10.11
2018-11-11T21:48:41.477Z,10.10
2018-11-11T21:51:15.368Z,10.15
2018-11-11T21:53:44.334Z,10.05
2018-11-11T21:56:13.521Z,9.92
2018-11-11T21:58:43.441Z,9.89
2018-11-11T22:01:14.936Z,9.85
2018-11-11T22:03:47.017Z,9.79
2018-11-11T22:06:18.214Z,9.82
2018-11-11T22:08:47.353Z,9.79
2018-11-11T22:11:20.434Z,9.74
2018-11-11T22:13:53.215Z,9.72
2018-11-11T22:16:23.720Z,9.75
2018-11-11T22:18:54.797Z,9.51
2018-11-11T22:21:23.777Z,9.56
2018-11-11T22:23:52.691Z,9.67
2018-11-11T22:26:22.139Z,9.64
2018-11-11T22:28:54.266Z,9.58
2018-11-11T22:31:23.322Z,9.57
2018-11-11T22:33:52.408Z,9.65
2018-11-11T22:36:24.467Z,9.70
2018-11-11T22:38:54.314Z,9.59
2018-11-11T22:41:24.506Z,9.69
2018-11-11T22:43:53.578Z,9.61
2018-11-11T22:46:25.045Z,9.61
2018-11-11T22:48:53.844Z,9.63
2018-11-11T22:51:25.432Z,9.64
2018-11-11T22:53:54.886Z,9.68
2018-11-11T22:56:23.808Z,9.61
2018-11-11T22:58:52.809Z,9.45
2018-11-11T23:01:22.567Z,9.51
2018-11-11T23:03:54.873Z,9.64
2018-11-11T23:06:25.061Z,9.62
2018-11-11T23:08:54.293Z,9.68
2018-11-11T23:11:23.983Z,9.69
2018-11-11T23:13:53.558Z,9.57
2018-11-11T23:16:26.256Z,9.61
2018-11-11T23:18:55.329Z,9.48
2018-11-11T23:21:24.274Z,9.51
2018-11-11T23:23:53.108Z,9.61
2018-11-11T23:26:24.618Z,9.69
2018-11-11T23:28:54.555Z,9.79
2018-11-11T23:31:23.958Z,9.85
2018-11-11T23:33:53.676Z,9.89
2018-11-11T23:36:22.689Z,9.91
2018-11-11T23:38:51.641Z,9.90
2018-11-11T23:41:23.424Z,9.89
2018-11-11T23:43:53.316Z,9.88
2018-11-11T23:46:22.431Z,9.93
2018-11-11T23:48:53.497Z,9.90
2018-11-11T23:51:22.399Z,9.87
2018-11-11T23:53:53.848Z,9.79
2018-11-11T23:56:25.243Z,9.85
2018-11-11T23:58:55.788Z,9.82
